McGehee, Arkansas
Current Conditions -  °F | °C
As of 2:53 PM on Tuesday 21 Oct 2014 (Local Time) from KLLQ Reporting Station
Few Clouds Few Clouds  
Wind Chill: 26°   Ceiling: Unl
Heat Index: 26°   Visibility: 10mi
Dew Point: 14°   Wind: 0mph
Humidity: 50%   Direction: NA
Pressure: 30.03"   Gusts: NA
Location:  33.63°N, 91.39°W
Report Text: KLLQ 211953Z AUTO 00000KT 10SM FEW044 26/14 A3003 RMK AO2 SLP168 T02560144
Loading
Personal Weather Stations






























Interactive Weather Map
Tropical Storm Tracking
New forecast layout! Learn more

10-Day Weather Forecast

Advertisements
Track Severe Weather on mobile